createdAt,value
2023-02-14T00:01:38.230Z,14.10
2023-02-14T00:04:07.412Z,20.03
2023-02-14T00:06:38.747Z,22.07
2023-02-14T00:09:07.488Z,17.30
2023-02-14T00:11:35.200Z,17.80
2023-02-14T00:14:20.353Z,15.20
2023-02-14T00:16:47.895Z,18.90
2023-02-14T00:19:18.421Z,14.77
2023-02-14T00:21:46.763Z,17.57
2023-02-14T00:24:16.332Z,19.07
2023-02-14T00:26:44.300Z,17.17
2023-02-14T00:29:13.789Z,14.40
2023-02-14T00:31:42.525Z,13.97
2023-02-14T00:34:11.294Z,15.50
2023-02-14T00:36:41.276Z,16.37
2023-02-14T00:39:10.924Z,18.90
2023-02-14T00:41:39.086Z,16.50
2023-02-14T00:44:07.834Z,15.70
2023-02-14T00:46:35.906Z,20.37
2023-02-14T00:49:03.746Z,20.73
2023-02-14T00:51:31.638Z,18.40
2023-02-14T00:54:00.548Z,22.47
2023-02-14T00:56:28.415Z,20.63
2023-02-14T00:58:56.160Z,15.43
2023-02-14T01:01:23.876Z,25.73
2023-02-14T01:03:51.496Z,17.97
2023-02-14T01:06:20.355Z,16.33
2023-02-14T01:08:47.859Z,16.10
2023-02-14T01:11:19.792Z,16.13
2023-02-14T01:13:49.566Z,15.97
2023-02-14T01:16:21.925Z,17.73
2023-02-14T01:18:50.604Z,16.90
2023-02-14T01:21:23.428Z,14.33
2023-02-14T01:23:52.962Z,17.83
2023-02-14T01:26:23.562Z,19.87
2023-02-14T01:28:51.497Z,18.77
2023-02-14T01:31:21.870Z,19.53
2023-02-14T01:33:50.997Z,21.43
2023-02-14T01:36:21.185Z,16.23
2023-02-14T01:38:51.540Z,17.90
2023-02-14T01:41:19.492Z,17.40
2023-02-14T01:43:56.499Z,17.23
2023-02-14T01:46:26.523Z,20.33
2023-02-14T01:49:00.092Z,18.53
2023-02-14T01:51:27.809Z,20.57
2023-02-14T01:53:55.743Z,19.73
2023-02-14T01:56:35.867Z,18.30
2023-02-14T01:59:08.892Z,23.20
2023-02-14T02:01:39.092Z,19.73
2023-02-14T02:04:10.330Z,19.57
2023-02-14T02:06:43.181Z,17.60
2023-02-14T02:09:16.680Z,19.50
2023-02-14T02:11:45.323Z,19.80
2023-02-14T02:14:16.764Z,22.57
2023-02-14T02:16:58.863Z,16.67
2023-02-14T02:20:03.410Z,19.23
2023-02-14T02:22:56.978Z,24.77
2023-02-14T02:25:45.398Z,15.43
2023-02-14T02:28:38.401Z,18.83
2023-02-14T02:31:28.092Z,21.33
2023-02-14T02:34:27.516Z,18.87
2023-02-14T02:37:09.812Z,20.20
2023-02-14T02:39:50.080Z,19.27
2023-02-14T02:42:28.685Z,16.70
2023-02-14T02:45:05.676Z,18.60
2023-02-14T02:47:41.633Z,18.93
2023-02-14T02:50:41.143Z,18.30
2023-02-14T02:53:18.093Z,18.63
2023-02-14T02:56:11.148Z,20.20
2023-02-14T02:58:46.644Z,19.80
2023-02-14T03:01:18.402Z,21.83
2023-02-14T03:04:10.270Z,17.83
2023-02-14T03:06:37.888Z,22.63
2023-02-14T03:09:38.326Z,22.40
2023-02-14T03:12:30.690Z,19.27
2023-02-14T03:15:10.391Z,20.03
2023-02-14T03:17:50.394Z,19.57
2023-02-14T03:20:23.140Z,19.53
2023-02-14T03:22:56.443Z,20.80
2023-02-14T03:25:36.655Z,21.13
2023-02-14T03:28:15.544Z,19.87
2023-02-14T03:30:52.449Z,20.70
2023-02-14T03:33:26.711Z,22.37
2023-02-14T03:36:01.826Z,29.50
2023-02-14T03:38:35.499Z,21.67
2023-02-14T03:41:05.804Z,22.30
2023-02-14T03:43:38.263Z,19.53
2023-02-14T03:46:10.239Z,24.57
2023-02-14T03:48:40.076Z,24.97
2023-02-14T03:51:11.476Z,22.10
2023-02-14T03:53:44.376Z,28.17
2023-02-14T03:56:18.532Z,31.10
2023-02-14T03:58:51.609Z,17.90
2023-02-14T04:01:24.223Z,30.83
2023-02-14T04:03:56.377Z,22.50
2023-02-14T04:06:24.354Z,26.63
2023-02-14T04:08:51.874Z,21.90
2023-02-14T04:11:19.539Z,20.57
2023-02-14T04:13:48.365Z,24.80
2023-02-14T04:16:15.846Z,19.00
2023-02-14T04:19:01.205Z,21.17
2023-02-14T04:21:28.849Z,23.67
2023-02-14T04:23:56.384Z,21.23
2023-02-14T04:26:24.436Z,21.07
2023-02-14T04:28:53.392Z,20.50
2023-02-14T04:31:21.048Z,21.03
2023-02-14T04:33:53.650Z,23.80
2023-02-14T04:36:21.254Z,19.67
2023-02-14T04:38:48.740Z,22.37
2023-02-14T04:41:16.518Z,22.37
2023-02-14T04:43:46.097Z,23.70
2023-02-14T04:46:15.038Z,26.93
2023-02-14T04:48:42.996Z,29.03
2023-02-14T04:51:10.531Z,27.40
2023-02-14T04:53:40.253Z,31.23
2023-02-14T04:56:08.776Z,24.27
2023-02-14T04:58:37.784Z,27.60
2023-02-14T05:01:05.392Z,32.83
2023-02-14T05:03:34.334Z,30.37
2023-02-14T05:06:01.983Z,30.83
2023-02-14T05:08:29.511Z,30.83
2023-02-14T05:10:57.521Z,28.50
2023-02-14T05:13:25.187Z,39.83
2023-02-14T05:15:52.873Z,21.47
2023-02-14T05:18:20.433Z,36.50
2023-02-14T05:20:52.085Z,28.03
2023-02-14T05:23:19.716Z,23.27
2023-02-14T05:25:48.844Z,29.40
2023-02-14T05:28:16.564Z,28.97
2023-02-14T05:30:44.253Z,25.27
2023-02-14T05:33:11.917Z,20.20
2023-02-14T05:35:39.598Z,29.43
2023-02-14T05:38:10.650Z,26.97
2023-02-14T05:40:38.251Z,25.70
2023-02-14T05:43:05.980Z,33.17
2023-02-14T05:45:33.634Z,32.20
2023-02-14T05:48:01.337Z,29.10
2023-02-14T05:50:29.011Z,27.80
2023-02-14T05:52:57.437Z,27.80
2023-02-14T05:55:30.038Z,28.33
2023-02-14T05:57:57.537Z,27.37
2023-02-14T06:00:26.834Z,31.20
2023-02-14T06:02:54.927Z,35.47
2023-02-14T06:05:22.814Z,31.77
2023-02-14T06:07:53.298Z,30.63
2023-02-14T06:10:22.703Z,28.23
2023-02-14T06:12:53.460Z,26.00
2023-02-14T06:15:21.474Z,36.57
2023-02-14T06:17:52.655Z,28.90
2023-02-14T06:20:20.641Z,26.70
2023-02-14T06:22:49.902Z,28.83
2023-02-14T06:25:18.007Z,29.33
2023-02-14T06:27:49.255Z,29.93
2023-02-14T06:30:19.584Z,29.60
2023-02-14T06:32:47.427Z,28.23
2023-02-14T06:35:15.528Z,28.40
2023-02-14T06:37:45.101Z,26.27
2023-02-14T06:40:14.500Z,24.63
2023-02-14T06:42:42.595Z,25.60
2023-02-14T06:45:11.140Z,24.37
2023-02-14T06:47:40.030Z,23.17
2023-02-14T06:50:11.478Z,22.07
2023-02-14T06:52:39.640Z,23.07
2023-02-14T06:55:11.708Z,21.33
2023-02-14T06:57:40.164Z,22.80
2023-02-14T07:00:09.964Z,22.37
2023-02-14T07:02:37.766Z,20.40
2023-02-14T07:05:09.811Z,15.37
2023-02-14T07:07:37.382Z,19.83
2023-02-14T07:10:18.623Z,19.13
2023-02-14T07:12:46.154Z,14.10
2023-02-14T07:15:14.327Z,18.63
2023-02-14T07:17:41.954Z,18.03
2023-02-14T07:20:13.420Z,16.93
2023-02-14T07:22:40.968Z,18.70
2023-02-14T07:25:09.354Z,17.13
2023-02-14T07:27:37.161Z,16.80
2023-02-14T07:30:05.544Z,16.30
2023-02-14T07:32:34.160Z,13.80
2023-02-14T07:35:02.774Z,16.53
2023-02-14T07:37:32.935Z,14.83
2023-02-14T07:40:00.910Z,28.47
2023-02-14T07:42:28.937Z,13.27
2023-02-14T07:44:56.812Z,13.87
2023-02-14T07:47:24.994Z,11.77
2023-02-14T07:49:53.540Z,18.30
2023-02-14T07:52:22.166Z,17.30
2023-02-14T07:54:51.004Z,16.50
2023-02-14T07:57:19.596Z,17.83
2023-02-14T07:59:47.106Z,18.57
2023-02-14T08:02:14.753Z,16.73
2023-02-14T08:04:42.353Z,16.90
2023-02-14T08:07:09.834Z,15.10
2023-02-14T08:09:38.467Z,14.77
2023-02-14T08:12:25.313Z,15.67
2023-02-14T08:14:52.815Z,16.17
2023-02-14T08:17:20.350Z,15.43
2023-02-14T08:19:47.831Z,15.27
2023-02-14T08:22:22.363Z,17.77
2023-02-14T08:24:50.527Z,13.87
2023-02-14T08:27:19.349Z,15.90
2023-02-14T08:29:46.893Z,14.60
2023-02-14T08:32:15.821Z,13.10
2023-02-14T08:34:43.494Z,16.07
2023-02-14T08:37:10.993Z,13.13
2023-02-14T08:39:39.731Z,16.57
2023-02-14T08:42:08.464Z,16.13
2023-02-14T08:44:37.340Z,14.13
2023-02-14T08:47:04.937Z,18.43
2023-02-14T08:49:32.481Z,16.03
2023-02-14T08:51:59.997Z,18.53
2023-02-14T08:54:27.521Z,18.13
2023-02-14T08:56:55.020Z,15.07
2023-02-14T08:59:22.760Z,18.50
2023-02-14T09:01:52.706Z,19.13
2023-02-14T09:04:21.490Z,16.30
2023-02-14T09:06:49.077Z,22.90
2023-02-14T09:09:17.414Z,18.07
2023-02-14T09:11:45.093Z,16.13
2023-02-14T09:14:12.618Z,18.83
2023-02-14T09:16:40.821Z,17.60
2023-02-14T09:19:09.772Z,20.50
2023-02-14T09:21:37.350Z,21.83
2023-02-14T09:24:04.998Z,25.87
2023-02-14T09:26:32.685Z,35.93
2023-02-14T09:29:00.348Z,25.20
2023-02-14T09:31:28.018Z,20.30
2023-02-14T09:33:56.256Z,20.53
2023-02-14T09:36:25.145Z,17.73
2023-02-14T09:38:52.649Z,17.43
2023-02-14T09:41:49.448Z,20.77
2023-02-14T09:44:26.748Z,15.97
2023-02-14T09:46:57.688Z,21.23
2023-02-14T09:49:33.928Z,14.83
2023-02-14T09:52:09.237Z,15.47
2023-02-14T09:54:38.396Z,16.63
2023-02-14T09:57:17.457Z,14.60
2023-02-14T09:59:52.182Z,17.53
2023-02-14T10:02:41.151Z,17.87
2023-02-14T10:05:14.658Z,17.03
2023-02-14T10:07:57.093Z,17.00
2023-02-14T10:10:30.710Z,16.97
2023-02-14T10:13:04.053Z,19.27
2023-02-14T10:15:35.237Z,14.40
2023-02-14T10:18:10.980Z,16.53
2023-02-14T10:20:42.570Z,15.90
2023-02-14T10:23:30.146Z,21.70
2023-02-14T10:26:01.938Z,17.47
2023-02-14T10:28:33.597Z,20.27
2023-02-14T10:31:19.440Z,16.37
2023-02-14T10:33:56.327Z,19.77
2023-02-14T10:36:39.375Z,21.17
2023-02-14T10:39:24.346Z,20.13
2023-02-14T10:41:57.696Z,18.33
2023-02-14T10:44:43.356Z,17.70
2023-02-14T10:47:24.533Z,14.90
2023-02-14T10:49:59.053Z,17.33
2023-02-14T10:52:34.276Z,15.70
2023-02-14T10:55:20.266Z,16.00
2023-02-14T10:57:58.288Z,15.70
2023-02-14T11:00:29.782Z,18.03
2023-02-14T11:02:58.910Z,17.73
2023-02-14T11:05:34.262Z,14.80
2023-02-14T11:08:02.159Z,18.20
2023-02-14T11:10:36.008Z,14.87
2023-02-14T11:13:03.559Z,20.30
2023-02-14T11:15:34.647Z,16.13
2023-02-14T11:18:22.655Z,16.03
2023-02-14T11:21:02.174Z,20.90
2023-02-14T11:23:34.189Z,17.67
2023-02-14T11:26:04.847Z,17.10
2023-02-14T11:28:32.909Z,16.27
2023-02-14T11:31:01.209Z,18.20
2023-02-14T11:33:35.926Z,16.77
2023-02-14T11:36:06.176Z,16.70
2023-02-14T11:38:38.254Z,20.80
2023-02-14T11:41:09.277Z,16.90
2023-02-14T11:43:38.234Z,15.63
2023-02-14T11:46:15.332Z,14.47
2023-02-14T11:48:58.984Z,18.23
2023-02-14T11:51:29.474Z,19.53
2023-02-14T11:54:04.670Z,20.40
2023-02-14T11:56:50.497Z,18.10
2023-02-14T11:59:31.087Z,24.33
2023-02-14T12:02:02.076Z,16.63
2023-02-14T12:04:45.787Z,23.43
2023-02-14T12:07:21.193Z,17.77
2023-02-14T12:09:49.741Z,18.03
2023-02-14T12:12:26.733Z,17.23
2023-02-14T12:15:14.326Z,24.80
2023-02-14T12:17:47.997Z,16.83
2023-02-14T12:20:20.418Z,17.97
2023-02-14T12:22:57.660Z,18.20
2023-02-14T12:25:27.536Z,17.67
2023-02-14T12:28:04.080Z,17.03
2023-02-14T12:30:34.728Z,15.10
2023-02-14T12:33:04.915Z,15.77
2023-02-14T12:35:45.670Z,19.50
2023-02-14T12:38:20.064Z,18.30
2023-02-14T12:41:00.699Z,21.70
2023-02-14T12:43:52.411Z,20.80
2023-02-14T12:46:42.690Z,18.33
2023-02-14T12:49:34.057Z,17.93
2023-02-14T12:52:19.550Z,19.20
2023-02-14T12:55:02.861Z,18.87
2023-02-14T12:57:41.220Z,16.73
2023-02-14T13:00:22.129Z,16.60
2023-02-14T13:03:17.094Z,18.67
2023-02-14T13:05:56.712Z,16.73
2023-02-14T13:08:38.520Z,19.80
2023-02-14T13:11:12.859Z,18.87
2023-02-14T13:13:53.276Z,19.73
2023-02-14T13:16:28.059Z,31.93
2023-02-14T13:19:04.434Z,24.20
2023-02-14T13:21:37.515Z,21.77
2023-02-14T13:24:16.028Z,21.90
2023-02-14T13:26:48.452Z,18.40
2023-02-14T13:29:23.524Z,22.93
2023-02-14T13:31:55.133Z,18.50
2023-02-14T13:34:29.751Z,21.60
2023-02-14T13:37:00.257Z,17.73
2023-02-14T13:39:37.792Z,16.30
2023-02-14T13:42:07.235Z,18.50
2023-02-14T13:44:46.329Z,20.27
2023-02-14T13:47:20.912Z,20.70
2023-02-14T13:49:51.706Z,21.80
2023-02-14T13:52:45.795Z,22.20
2023-02-14T13:55:19.670Z,27.37
2023-02-14T13:57:48.271Z,23.63
2023-02-14T14:00:37.364Z,20.17
2023-02-14T14:03:08.178Z,23.07
2023-02-14T14:06:02.965Z,21.57
2023-02-14T14:08:47.314Z,21.47
2023-02-14T14:11:56.490Z,18.10
2023-02-14T14:14:39.846Z,19.70
2023-02-14T14:17:25.886Z,21.60
2023-02-14T14:19:55.423Z,22.93
2023-02-14T14:22:23.241Z,21.70
2023-02-14T14:24:59.303Z,23.40
2023-02-14T14:27:32.860Z,25.07
2023-02-14T14:30:17.689Z,19.57
2023-02-14T14:32:45.675Z,24.03
2023-02-14T14:35:21.309Z,20.40
2023-02-14T14:37:51.704Z,23.17
2023-02-14T14:40:27.534Z,18.90
2023-02-14T14:43:06.393Z,19.53
2023-02-14T14:45:34.259Z,18.23
2023-02-14T14:48:11.900Z,19.47
2023-02-14T14:50:45.791Z,23.53
2023-02-14T14:53:22.551Z,22.67
2023-02-14T14:55:55.993Z,21.50
2023-02-14T14:58:39.607Z,20.03
2023-02-14T15:01:09.326Z,18.13
2023-02-14T15:03:40.643Z,18.60
2023-02-14T15:06:19.710Z,21.30
2023-02-14T15:08:50.590Z,21.90
2023-02-14T15:11:37.333Z,18.37
2023-02-14T15:14:11.003Z,18.10
2023-02-14T15:16:46.302Z,19.50
2023-02-14T15:19:21.809Z,14.83
2023-02-14T15:21:51.102Z,19.73
2023-02-14T15:24:24.153Z,18.60
2023-02-14T15:26:53.501Z,19.53
2023-02-14T15:29:24.375Z,23.67
2023-02-14T15:31:53.159Z,19.30
2023-02-14T15:34:23.705Z,20.60
2023-02-14T15:36:56.102Z,22.77
2023-02-14T15:39:27.629Z,22.33
2023-02-14T15:41:55.609Z,20.83
2023-02-14T15:44:25.743Z,19.13
2023-02-14T15:46:57.177Z,15.47
2023-02-14T15:49:31.688Z,21.33
2023-02-14T15:52:02.703Z,20.37
2023-02-14T15:54:36.512Z,20.10
2023-02-14T15:57:06.044Z,18.77
2023-02-14T15:59:38.715Z,25.33
2023-02-14T16:02:28.321Z,20.00
2023-02-14T16:05:03.141Z,18.60
2023-02-14T16:07:32.233Z,16.63
2023-02-14T16:10:24.396Z,19.00
2023-02-14T16:12:57.626Z,21.90
2023-02-14T16:15:27.241Z,18.73
2023-02-14T16:17:56.084Z,25.90
2023-02-14T16:20:29.984Z,25.87
2023-02-14T16:23:28.095Z,25.30
2023-02-14T16:25:58.559Z,26.17
2023-02-14T16:28:32.124Z,26.53
2023-02-14T16:31:02.873Z,27.80
2023-02-14T16:33:33.741Z,28.07
2023-02-14T16:36:06.387Z,34.20
2023-02-14T16:38:42.357Z,28.33
2023-02-14T16:41:18.875Z,24.10
2023-02-14T16:43:47.851Z,31.30
2023-02-14T16:46:25.866Z,31.90
2023-02-14T16:48:54.591Z,30.97
2023-02-14T16:51:24.795Z,28.60
2023-02-14T16:53:56.179Z,27.67
2023-02-14T16:56:27.620Z,27.13
2023-02-14T16:58:57.795Z,37.97
2023-02-14T17:01:25.386Z,33.30
2023-02-14T17:03:53.240Z,29.13
2023-02-14T17:06:27.507Z,36.03
2023-02-14T17:08:58.198Z,29.20
2023-02-14T17:11:27.692Z,34.17
2023-02-14T17:13:58.886Z,46.30
2023-02-14T17:16:26.510Z,32.43
2023-02-14T17:18:54.203Z,29.80
2023-02-14T17:21:24.758Z,35.23
2023-02-14T17:23:52.362Z,38.20
2023-02-14T17:26:21.364Z,31.53
2023-02-14T17:28:49.026Z,35.37
2023-02-14T17:31:16.760Z,34.83
2023-02-14T17:33:44.547Z,32.80
2023-02-14T17:36:14.769Z,39.53
2023-02-14T17:38:43.970Z,31.33
2023-02-14T17:41:15.976Z,31.57
2023-02-14T17:43:44.922Z,29.03
2023-02-14T17:46:14.228Z,29.00
2023-02-14T17:48:45.296Z,30.50
2023-02-14T17:51:14.178Z,30.27
2023-02-14T17:53:44.373Z,29.83
2023-02-14T17:56:13.920Z,28.13
2023-02-14T17:58:42.257Z,27.50
2023-02-14T18:01:13.005Z,25.40
2023-02-14T18:03:41.178Z,25.17
2023-02-14T18:06:11.244Z,31.53
2023-02-14T18:08:43.470Z,27.73
2023-02-14T18:11:13.121Z,25.63
2023-02-14T18:13:40.792Z,22.67
2023-02-14T18:16:10.238Z,24.13
2023-02-14T18:18:40.459Z,27.93
2023-02-14T18:21:10.087Z,28.73
2023-02-14T18:23:38.187Z,26.30
2023-02-14T18:26:07.640Z,20.50
2023-02-14T18:28:36.126Z,19.33
2023-02-14T18:31:05.288Z,22.10
2023-02-14T18:33:35.622Z,21.33
2023-02-14T18:36:05.390Z,28.00
2023-02-14T18:38:32.952Z,23.77
2023-02-14T18:41:03.266Z,26.10
2023-02-14T18:43:31.031Z,24.37
2023-02-14T18:46:03.746Z,28.60
2023-02-14T18:48:31.756Z,24.57
2023-02-14T18:51:07.225Z,25.03
2023-02-14T18:53:34.949Z,20.03
2023-02-14T18:56:04.979Z,29.50
2023-02-14T18:58:33.430Z,27.93
2023-02-14T19:01:08.989Z,23.73
2023-02-14T19:03:36.661Z,26.67
2023-02-14T19:06:04.479Z,25.50
2023-02-14T19:08:35.861Z,23.37
2023-02-14T19:11:03.822Z,25.53
2023-02-14T19:13:32.174Z,32.33
2023-02-14T19:16:00.379Z,30.67
2023-02-14T19:18:28.115Z,27.70
2023-02-14T19:20:55.654Z,29.60
2023-02-14T19:23:23.956Z,28.90
2023-02-14T19:25:53.713Z,26.97
2023-02-14T19:28:21.414Z,28.83
2023-02-14T19:30:51.603Z,31.23
2023-02-14T19:33:19.396Z,31.83
2023-02-14T19:35:46.997Z,30.77
2023-02-14T19:38:14.979Z,32.40
2023-02-14T19:40:45.516Z,34.10
2023-02-14T19:43:16.476Z,32.90
2023-02-14T19:45:44.044Z,30.77
2023-02-14T19:48:14.087Z,31.73
2023-02-14T19:50:41.686Z,29.33
2023-02-14T19:53:09.604Z,35.27
2023-02-14T19:55:37.494Z,31.60
2023-02-14T19:58:05.372Z,33.20
2023-02-14T20:00:36.928Z,37.10
2023-02-14T20:03:06.032Z,31.57
2023-02-14T20:05:35.217Z,35.33
2023-02-14T20:08:03.225Z,33.33
2023-02-14T20:10:30.735Z,28.50
2023-02-14T20:12:58.340Z,32.60
2023-02-14T20:15:29.102Z,28.60
2023-02-14T20:17:58.282Z,27.67
2023-02-14T20:20:25.991Z,28.93
2023-02-14T20:22:53.745Z,29.10
2023-02-14T20:25:22.709Z,34.40
2023-02-14T20:27:54.564Z,32.60
2023-02-14T20:30:23.267Z,26.90
2023-02-14T20:32:52.242Z,29.30
2023-02-14T20:35:21.168Z,30.43
2023-02-14T20:37:48.866Z,33.83
2023-02-14T20:40:16.475Z,30.70
2023-02-14T20:42:44.583Z,23.80
2023-02-14T20:45:12.122Z,34.80
2023-02-14T20:47:39.607Z,40.90
2023-02-14T20:50:13.595Z,31.77
2023-02-14T20:52:42.530Z,32.90
2023-02-14T20:55:10.336Z,32.23
2023-02-14T20:57:38.472Z,36.30
2023-02-14T21:00:08.641Z,30.13
2023-02-14T21:02:36.188Z,29.00
2023-02-14T21:05:03.894Z,31.23
2023-02-14T21:07:31.481Z,33.97
2023-02-14T21:10:00.566Z,30.60
2023-02-14T21:12:28.258Z,38.73
2023-02-14T21:14:55.940Z,29.10
2023-02-14T21:17:26.414Z,32.13
2023-02-14T21:19:54.039Z,37.00
2023-02-14T21:22:24.128Z,27.60
2023-02-14T21:24:52.270Z,30.43
2023-02-14T21:27:22.485Z,36.47
2023-02-14T21:29:50.142Z,31.60
2023-02-14T21:32:20.585Z,36.43
2023-02-14T21:34:49.438Z,36.93
2023-02-14T21:37:17.190Z,37.63
2023-02-14T21:39:45.507Z,34.73
2023-02-14T21:42:13.222Z,32.90
2023-02-14T21:44:59.744Z,34.13
2023-02-14T21:47:27.296Z,34.73
2023-02-14T21:50:12.836Z,36.63
2023-02-14T21:52:40.441Z,31.07
2023-02-14T21:55:08.384Z,31.00
2023-02-14T21:57:35.922Z,26.57
2023-02-14T22:00:05.856Z,34.00
2023-02-14T22:02:33.535Z,33.13
2023-02-14T22:05:01.463Z,31.70
2023-02-14T22:07:29.265Z,33.00
2023-02-14T22:09:56.880Z,29.77
2023-02-14T22:12:24.499Z,32.00
2023-02-14T22:14:52.074Z,26.67
2023-02-14T22:17:21.150Z,31.20
2023-02-14T22:19:48.909Z,31.93
2023-02-14T22:22:16.428Z,29.90
2023-02-14T22:24:43.953Z,28.10
2023-02-14T22:27:11.895Z,31.80
2023-02-14T22:29:39.551Z,32.70
2023-02-14T22:32:08.347Z,32.13
2023-02-14T22:34:37.328Z,33.37
2023-02-14T22:37:04.873Z,35.13
2023-02-14T22:39:32.578Z,31.40
2023-02-14T22:42:02.322Z,29.93
2023-02-14T22:44:30.425Z,31.60
2023-02-14T22:46:59.267Z,30.67
2023-02-14T22:49:27.015Z,38.13
2023-02-14T22:51:55.982Z,28.93
2023-02-14T22:54:23.540Z,32.23
2023-02-14T22:56:51.934Z,27.17
2023-02-14T22:59:22.126Z,33.93
2023-02-14T23:01:50.772Z,28.60
2023-02-14T23:04:21.513Z,29.67
2023-02-14T23:06:49.933Z,29.97
2023-02-14T23:09:19.396Z,28.30
2023-02-14T23:11:50.564Z,28.77
2023-02-14T23:14:36.874Z,28.17
2023-02-14T23:17:23.385Z,25.43
2023-02-14T23:20:08.828Z,26.80
2023-02-14T23:22:39.826Z,32.27
2023-02-14T23:25:16.930Z,27.43
2023-02-14T23:27:47.397Z,28.67
2023-02-14T23:30:17.243Z,28.30
2023-02-14T23:32:45.440Z,26.30
2023-02-14T23:35:13.522Z,26.63
2023-02-14T23:37:42.629Z,26.90
2023-02-14T23:40:17.994Z,32.07
2023-02-14T23:42:45.560Z,32.43
2023-02-14T23:45:30.945Z,29.13
2023-02-14T23:48:05.054Z,30.13
2023-02-14T23:50:32.798Z,24.17
2023-02-14T23:53:00.661Z,28.00
2023-02-14T23:55:34.196Z,26.23
2023-02-14T23:58:02.208Z,28.00
